createdAt,value
2022-08-17T00:03:10.642Z,100279.31
2022-08-17T00:08:14.243Z,100285.72
2022-08-17T00:13:26.539Z,100282.44
2022-08-17T00:19:01.244Z,100283.59
2022-08-17T00:23:53.714Z,100284.69
2022-08-17T00:28:55.970Z,100278.38
2022-08-17T00:33:58.077Z,100280.78
2022-08-17T00:38:59.672Z,100272.44
2022-08-17T00:44:05.116Z,100268.16
2022-08-17T00:49:08.637Z,100255.53
2022-08-17T00:54:18.921Z,100263.88
2022-08-17T00:59:25.786Z,100263.22
2022-08-17T01:04:29.788Z,100255.03
2022-08-17T01:09:32.793Z,100246.44
2022-08-17T01:14:34.761Z,100247.28
2022-08-17T01:19:41.701Z,100251.84
2022-08-17T01:24:46.997Z,100252.09
2022-08-17T01:29:55.036Z,100257.94
2022-08-17T01:34:57.597Z,100262.47
2022-08-17T01:40:13.248Z,100266.47
2022-08-17T01:45:21.979Z,100269.97
2022-08-17T01:50:28.464Z,100270.75
2022-08-17T01:55:38.098Z,100269.72
2022-08-17T02:00:46.734Z,100274.28
2022-08-17T02:06:02.689Z,100274.28
2022-08-17T02:11:11.674Z,100266.88
2022-08-17T02:16:13.507Z,100272.47
2022-08-17T02:21:15.093Z,100270.09
2022-08-17T02:26:25.754Z,100261.31
2022-08-17T02:31:28.348Z,100259.19
2022-08-17T02:36:29.945Z,100259.16
2022-08-17T02:41:31.784Z,100256.22
2022-08-17T02:46:33.431Z,100264.78
2022-08-17T02:51:35.192Z,100258.09
2022-08-17T02:56:36.763Z,100268.78
2022-08-17T03:01:38.466Z,100266.09
2022-08-17T03:06:40.084Z,100248.47
2022-08-17T03:11:41.636Z,100263.94
2022-08-17T03:16:43.210Z,100253.00
2022-08-17T03:21:45.524Z,100254.06
2022-08-17T03:26:47.075Z,100246.84
2022-08-17T03:31:49.697Z,100253.25
2022-08-17T03:36:51.250Z,100251.13
2022-08-17T03:41:52.814Z,100252.69
2022-08-17T03:46:54.474Z,100255.94
2022-08-17T03:51:57.709Z,100255.41
2022-08-17T03:57:08.979Z,100259.38
2022-08-17T04:02:21.722Z,100273.16
2022-08-17T04:07:28.152Z,100269.72
2022-08-17T04:12:41.932Z,100269.25
2022-08-17T04:17:44.319Z,100263.94
2022-08-17T04:23:06.550Z,100265.53
2022-08-17T04:28:15.779Z,100274.31
2022-08-17T04:33:21.906Z,100276.97
2022-08-17T04:38:27.368Z,100281.25
2022-08-17T04:43:31.539Z,100285.53
2022-08-17T04:48:37.550Z,100283.13
2022-08-17T04:53:51.067Z,100278.88
2022-08-17T04:59:00.346Z,100279.16
2022-08-17T05:04:20.889Z,100286.63
2022-08-17T05:09:28.763Z,100293.84
2022-08-17T05:14:33.742Z,100276.78
2022-08-17T05:19:35.442Z,100287.94
2022-08-17T05:24:50.382Z,100283.69
2022-08-17T05:29:55.446Z,100262.88
2022-08-17T05:34:57.101Z,100274.28
2022-08-17T05:39:58.686Z,100260.91
2022-08-17T05:45:00.492Z,100274.97
2022-08-17T05:50:02.675Z,100282.69
2022-08-17T05:55:37.887Z,100288.25
2022-08-17T06:00:52.391Z,100290.00
2022-08-17T06:06:05.933Z,100283.22
2022-08-17T06:11:10.193Z,100279.44
2022-08-17T06:16:28.144Z,100292.53
2022-08-17T06:21:39.381Z,100332.31
2022-08-17T06:26:43.455Z,100328.78
2022-08-17T06:31:45.249Z,100326.25
2022-08-17T06:37:06.295Z,100344.03
2022-08-17T06:42:55.125Z,100334.16
2022-08-17T06:47:56.381Z,100330.03
2022-08-17T06:53:14.517Z,100327.94
2022-08-17T06:58:20.554Z,100313.81
2022-08-17T07:03:48.423Z,100336.44
2022-08-17T07:09:02.595Z,100342.38
2022-08-17T07:14:13.997Z,100346.00
2022-08-17T07:19:23.460Z,100344.13
2022-08-17T07:24:36.978Z,100338.75
2022-08-17T07:29:59.206Z,100359.31
2022-08-17T07:35:10.646Z,100377.72
2022-08-17T07:40:49.879Z,100377.28
2022-08-17T07:46:03.747Z,100388.41
2022-08-17T07:51:28.365Z,100379.00
2022-08-17T07:56:42.427Z,100379.59
2022-08-17T08:02:23.713Z,100390.97
2022-08-17T08:08:02.991Z,100397.50
2022-08-17T08:13:14.680Z,100405.09
2022-08-17T08:18:54.862Z,100396.28
2022-08-17T08:23:55.178Z,100392.69
2022-08-17T08:29:31.554Z,100389.41
2022-08-17T08:34:47.431Z,100395.72
2022-08-17T08:40:10.559Z,100402.16
2022-08-17T08:45:21.407Z,100410.41
2022-08-17T08:50:47.785Z,100434.28
2022-08-17T08:55:55.052Z,100436.28
2022-08-17T09:00:59.710Z,100421.88
2022-08-17T09:06:37.329Z,100436.97
2022-08-17T09:12:02.140Z,100441.59
2022-08-17T09:17:16.521Z,100442.69
2022-08-17T09:22:33.456Z,100438.84
2022-08-17T09:27:50.585Z,100439.28
2022-08-17T09:32:58.612Z,100446.56
2022-08-17T09:38:16.333Z,100441.34
2022-08-17T09:43:41.148Z,100456.63
2022-08-17T09:48:53.919Z,100444.13
2022-08-17T09:54:09.462Z,100435.81
2022-08-17T09:59:45.722Z,100419.53
2022-08-17T10:05:13.260Z,100426.44
2022-08-17T10:10:27.875Z,100432.31
2022-08-17T10:15:50.187Z,100434.03
2022-08-17T10:21:18.871Z,100423.31
2022-08-17T10:26:24.361Z,100432.66
2022-08-17T10:31:44.097Z,100427.19
2022-08-17T10:36:45.635Z,100436.81
2022-08-17T10:41:51.468Z,100448.25
2022-08-17T10:47:12.612Z,100460.34
2022-08-17T10:52:20.132Z,100458.78
2022-08-17T10:57:30.589Z,100466.84
2022-08-17T11:02:49.478Z,100452.97
2022-08-17T11:08:03.301Z,100449.38
2022-08-17T11:13:09.238Z,100469.03
2022-08-17T11:18:25.801Z,100461.00
2022-08-17T11:23:52.533Z,100455.28
2022-08-17T11:29:06.020Z,100453.78
2022-08-17T11:34:13.825Z,100451.16
2022-08-17T11:39:18.379Z,100450.88
2022-08-17T11:44:28.868Z,100450.69
2022-08-17T11:49:56.151Z,100441.63
2022-08-17T11:55:12.219Z,100446.88
2022-08-17T12:00:46.507Z,100439.00
2022-08-17T12:05:49.026Z,100437.09
2022-08-17T12:11:56.324Z,100438.75
2022-08-17T12:17:06.912Z,100443.75
2022-08-17T12:22:08.452Z,100451.88
2022-08-17T12:27:11.155Z,100456.38
2022-08-17T12:32:20.400Z,100450.59
2022-08-17T12:37:23.719Z,100452.31
2022-08-17T12:42:38.434Z,100451.44
2022-08-17T12:47:40.018Z,100451.63
2022-08-17T12:52:43.506Z,100458.69
2022-08-17T12:57:49.987Z,100459.06
2022-08-17T13:03:19.541Z,100462.66
2022-08-17T13:08:41.533Z,100449.00
2022-08-17T13:13:48.698Z,100433.09
2022-08-17T13:18:53.550Z,100443.41
2022-08-17T13:24:13.452Z,100443.81
2022-08-17T13:29:23.013Z,100439.28
2022-08-17T13:34:24.502Z,100438.03
2022-08-17T13:39:28.520Z,100437.44
2022-08-17T13:44:31.619Z,100439.56
2022-08-17T13:49:48.114Z,100442.00
2022-08-17T13:54:51.685Z,100439.16
2022-08-17T14:00:15.771Z,100436.63
2022-08-17T14:05:17.468Z,100435.75
2022-08-17T14:10:20.342Z,100425.56
2022-08-17T14:15:55.452Z,100417.44
2022-08-17T14:20:47.016Z,100429.69
2022-08-17T14:25:48.632Z,100419.81
2022-08-17T14:30:50.222Z,100413.09
2022-08-17T14:35:51.949Z,100411.09
2022-08-17T14:40:53.721Z,100411.75
2022-08-17T14:45:55.426Z,100409.56
2022-08-17T14:50:56.993Z,100406.47
2022-08-17T14:55:58.672Z,100394.72
2022-08-17T15:01:00.302Z,100401.22
2022-08-17T15:06:01.961Z,100406.94
2022-08-17T15:11:04.602Z,100410.53
2022-08-17T15:16:06.421Z,100399.03
2022-08-17T15:21:09.304Z,100395.88
2022-08-17T15:26:11.473Z,100402.00
2022-08-17T15:31:13.345Z,100392.81
2022-08-17T15:36:15.001Z,100385.78
2022-08-17T15:41:17.668Z,100388.66
2022-08-17T15:46:22.098Z,100383.59
2022-08-17T15:51:35.122Z,100404.56
2022-08-17T15:56:38.009Z,100395.81
2022-08-17T16:03:13.662Z,100393.28
2022-08-17T16:07:01.161Z,100409.16
2022-08-17T16:12:21.751Z,100404.00
2022-08-17T16:17:38.718Z,100404.16
2022-08-17T16:22:45.702Z,100399.34
2022-08-17T16:27:50.097Z,100401.94
2022-08-17T16:32:53.965Z,100403.19
2022-08-17T16:37:56.533Z,100397.78
2022-08-17T16:42:59.014Z,100380.59
2022-08-17T16:48:00.717Z,100384.88
2022-08-17T16:53:13.658Z,100389.59
2022-08-17T16:58:15.745Z,100391.31
2022-08-17T17:03:21.860Z,100404.44
2022-08-17T17:08:33.920Z,100392.63
2022-08-17T17:13:44.601Z,100385.81
2022-08-17T17:19:34.326Z,100394.22
2022-08-17T17:24:56.978Z,100391.66
2022-08-17T17:30:12.813Z,100407.81
2022-08-17T17:35:25.616Z,100417.38
2022-08-17T17:40:54.802Z,100426.38
2022-08-17T17:46:28.339Z,100424.97
2022-08-17T17:52:09.146Z,100436.16
2022-08-17T17:57:30.249Z,100427.94
2022-08-17T18:02:46.541Z,100424.34
2022-08-17T18:08:04.755Z,100432.84
2022-08-17T18:13:47.807Z,100431.72
2022-08-17T18:18:51.162Z,100427.03
2022-08-17T18:23:55.394Z,100436.75
2022-08-17T18:28:57.142Z,100430.09
2022-08-17T18:34:45.826Z,100439.22
2022-08-17T18:39:44.275Z,100456.41
2022-08-17T18:44:46.004Z,100455.75
2022-08-17T18:49:56.848Z,100468.59
2022-08-17T18:55:13.609Z,100474.66
2022-08-17T19:00:21.333Z,100483.34
2022-08-17T19:05:39.825Z,100484.34
2022-08-17T19:10:46.381Z,100486.88
2022-08-17T19:16:13.834Z,100497.91
2022-08-17T19:21:37.128Z,100498.47
2022-08-17T19:26:55.382Z,100498.13
2022-08-17T19:31:58.731Z,100503.34
2022-08-17T19:37:09.255Z,100506.69
2022-08-17T19:42:17.844Z,100501.97
2022-08-17T19:48:04.650Z,100505.78
2022-08-17T19:53:06.370Z,100505.28
2022-08-17T19:58:38.636Z,100523.78
2022-08-17T20:04:07.927Z,100511.81
2022-08-17T20:09:29.697Z,100513.69
2022-08-17T20:15:08.601Z,100515.34
2022-08-17T20:20:31.810Z,100531.16
2022-08-17T20:25:57.239Z,100549.34
2022-08-17T20:30:58.960Z,100555.06
2022-08-17T20:36:11.514Z,100555.38
2022-08-17T20:41:14.859Z,100553.25
2022-08-17T20:46:28.202Z,100551.69
2022-08-17T20:51:33.849Z,100548.72
2022-08-17T20:56:44.311Z,100539.66
2022-08-17T21:02:05.166Z,100536.72
2022-08-17T21:07:27.984Z,100532.22
2022-08-17T21:13:01.682Z,100545.56
2022-08-17T21:18:15.372Z,100543.47
2022-08-17T21:23:31.601Z,100548.81
2022-08-17T21:29:00.761Z,100559.50
2022-08-17T21:34:15.291Z,100566.44
2022-08-17T21:39:30.638Z,100572.28
2022-08-17T21:44:37.373Z,100564.50
2022-08-17T21:49:38.934Z,100565.28
2022-08-17T21:54:48.496Z,100567.69
2022-08-17T21:59:59.964Z,100583.41
2022-08-17T22:05:13.947Z,100568.84
2022-08-17T22:10:27.774Z,100566.91
2022-08-17T22:15:29.486Z,100587.22
2022-08-17T22:20:31.334Z,100583.13
2022-08-17T22:25:37.007Z,100590.75
2022-08-17T22:30:40.651Z,100600.75
2022-08-17T22:35:43.382Z,100606.00
2022-08-17T22:41:13.102Z,100607.84
2022-08-17T22:46:15.450Z,100614.75
2022-08-17T22:51:27.986Z,100606.03
2022-08-17T22:56:29.724Z,100606.31
2022-08-17T23:01:33.148Z,100600.94
2022-08-17T23:06:36.880Z,100606.91
2022-08-17T23:11:48.908Z,100617.00
2022-08-17T23:16:51.676Z,100601.94
2022-08-17T23:21:54.198Z,100608.41
2022-08-17T23:26:57.384Z,100606.38
2022-08-17T23:32:00.158Z,100616.78
2022-08-17T23:37:01.869Z,100613.00
2022-08-17T23:42:08.694Z,100622.56
2022-08-17T23:47:10.942Z,100625.97
2022-08-17T23:52:16.379Z,100631.50
2022-08-17T23:57:20.545Z,100632.84
